WZZ4733 LUKK-LBSF
Flight info
| Callsign | WZZ4733 |
|---|---|
| Flight time | 1h 0m |
| Altitude | 34000 |
| Route | POGAV DCT BCU DCT GOL |
| Aircraft | A320/M-SDE3FGHIRWY/LB1 |
Departure
| Time | 2026-05-04 19:22 |
|---|---|
| Airport | Chişinău International Airport (LUKK) |
Arrival
| Time | 2026-05-04 20:23 |
|---|---|
| Airport | Sofia Airport (LBSF) |
| Time | Latitude | Longitude | Altitude | Speed | Heading |
|---|---|---|---|---|---|
| 2026-05-04 18:54 | 46.93408 | 28.93192 | 335 ft | 0 kts | 186° |
| 2026-05-04 19:13 | 46.93413 | 28.93193 | 337 ft | 1 kts | 180° |
| 2026-05-04 19:13 | 46.93429 | 28.93193 | 331 ft | 2 kts | 171° |
| 2026-05-04 19:14 | 46.93444 | 28.93185 | 330 ft | 2 kts | 120° |
| 2026-05-04 19:14 | 46.93449 | 28.93164 | 331 ft | 1 kts | 96° |
| 2026-05-04 19:14 | 46.93450 | 28.93159 | 331 ft | 0 kts | 95° |
| 2026-05-04 19:17 | 46.93449 | 28.93173 | 331 ft | 5 kts | 95° |
| 2026-05-04 19:17 | 46.93441 | 28.93258 | 333 ft | 9 kts | 94° |
| 2026-05-04 19:17 | 46.93435 | 28.93356 | 339 ft | 12 kts | 98° |
| 2026-05-04 19:17 | 46.93420 | 28.93467 | 346 ft | 10 kts | 121° |
| 2026-05-04 19:18 | 46.93352 | 28.93477 | 350 ft | 11 kts | 185° |
| 2026-05-04 19:18 | 46.93249 | 28.93457 | 344 ft | 16 kts | 187° |
| 2026-05-04 19:18 | 46.93161 | 28.93414 | 347 ft | 12 kts | 248° |
| 2026-05-04 19:18 | 46.93167 | 28.93252 | 337 ft | 20 kts | 277° |
| 2026-05-04 19:19 | 46.93186 | 28.93036 | 326 ft | 20 kts | 277° |
| 2026-05-04 19:19 | 46.93205 | 28.92805 | 319 ft | 25 kts | 277° |
| 2026-05-04 19:19 | 46.93221 | 28.92601 | 310 ft | 22 kts | 278° |
| 2026-05-04 19:19 | 46.93237 | 28.92422 | 305 ft | 18 kts | 277° |
| 2026-05-04 19:20 | 46.93254 | 28.92218 | 298 ft | 22 kts | 277° |
| 2026-05-04 19:20 | 46.93245 | 28.92042 | 293 ft | 16 kts | 217° |
| 2026-05-04 19:20 | 46.93145 | 28.92001 | 298 ft | 13 kts | 194° |
| 2026-05-04 19:20 | 46.93067 | 28.91987 | 314 ft | 9 kts | 179° |
| 2026-05-04 19:21 | 46.92968 | 28.91991 | 346 ft | 19 kts | 181° |
| 2026-05-04 19:21 | 46.92865 | 28.91995 | 373 ft | 13 kts | 178° |
| 2026-05-04 19:21 | 46.92782 | 28.92007 | 375 ft | 11 kts | 157° |
| 2026-05-04 19:21 | 46.92759 | 28.92119 | 372 ft | 15 kts | 89° |
| 2026-05-04 19:22 | 46.92767 | 28.92499 | 364 ft | 77 kts | 88° |
| 2026-05-04 19:22 | 46.92791 | 28.93695 | 332 ft | 153 kts | 88° |
| 2026-05-04 19:22 | 46.92834 | 28.95472 | 459 ft | 195 kts | 88° |
| 2026-05-04 19:22 | 46.92875 | 28.97474 | 1375 ft | 197 kts | 88° |
| 2026-05-04 19:23 | 46.92915 | 28.99571 | 1804 ft | 218 kts | 88° |
| 2026-05-04 19:23 | 46.92960 | 29.01882 | 2220 ft | 241 kts | 87° |
| 2026-05-04 19:23 | 46.93003 | 29.04397 | 2978 ft | 250 kts | 90° |
| 2026-05-04 19:23 | 46.92545 | 29.06902 | 3834 ft | 259 kts | 116° |
| 2026-05-04 19:24 | 46.91392 | 29.08904 | 4709 ft | 269 kts | 140° |
| 2026-05-04 19:24 | 46.89661 | 29.10024 | 5558 ft | 281 kts | 168° |
| 2026-05-04 19:24 | 46.87686 | 29.09750 | 6394 ft | 292 kts | 200° |
| 2026-05-04 19:24 | 46.86020 | 29.08007 | 7146 ft | 299 kts | 233° |
| 2026-05-04 19:25 | 46.85112 | 29.05297 | 7919 ft | 299 kts | 258° |
| 2026-05-04 19:25 | 46.84656 | 29.02309 | 8720 ft | 302 kts | 262° |
| 2026-05-04 19:25 | 46.84214 | 28.99274 | 9514 ft | 306 kts | 263° |
| 2026-05-04 19:25 | 46.83771 | 28.96203 | 10262 ft | 311 kts | 263° |
| 2026-05-04 19:26 | 46.83321 | 28.93058 | 10561 ft | 332 kts | 263° |
| 2026-05-04 19:26 | 46.82837 | 28.89655 | 10838 ft | 349 kts | 262° |
| 2026-05-04 19:26 | 46.82333 | 28.86144 | 11427 ft | 356 kts | 262° |
| 2026-05-04 19:26 | 46.81817 | 28.82579 | 12105 ft | 360 kts | 262° |
| 2026-05-04 19:27 | 46.81295 | 28.78971 | 12778 ft | 364 kts | 262° |
| 2026-05-04 19:27 | 46.80765 | 28.75327 | 13458 ft | 368 kts | 261° |
| 2026-05-04 19:27 | 46.80236 | 28.71700 | 13924 ft | 371 kts | 261° |
| 2026-05-04 19:27 | 46.79693 | 28.67983 | 14670 ft | 375 kts | 261° |
| 2026-05-04 19:28 | 46.79145 | 28.64231 | 15259 ft | 378 kts | 261° |
| 2026-05-04 19:28 | 46.78594 | 28.60462 | 15848 ft | 380 kts | 261° |
| 2026-05-04 19:28 | 46.78040 | 28.56675 | 16432 ft | 383 kts | 261° |
| 2026-05-04 19:28 | 46.77488 | 28.52895 | 17003 ft | 386 kts | 261° |
| 2026-05-04 19:29 | 46.76924 | 28.49044 | 17589 ft | 389 kts | 261° |
| 2026-05-04 19:29 | 46.76350 | 28.45147 | 18180 ft | 392 kts | 260° |
| 2026-05-04 19:29 | 46.75772 | 28.41238 | 18713 ft | 395 kts | 260° |
| 2026-05-04 19:29 | 46.75186 | 28.37293 | 19245 ft | 397 kts | 260° |
| 2026-05-04 19:30 | 46.74599 | 28.33347 | 19770 ft | 400 kts | 260° |
| 2026-05-04 19:30 | 46.74007 | 28.29366 | 20319 ft | 402 kts | 260° |
| 2026-05-04 19:30 | 46.73421 | 28.25428 | 20834 ft | 404 kts | 260° |
| 2026-05-04 19:30 | 46.72822 | 28.21408 | 21329 ft | 406 kts | 260° |
| 2026-05-04 19:31 | 46.72217 | 28.17371 | 21815 ft | 408 kts | 260° |
| 2026-05-04 19:31 | 46.71606 | 28.13316 | 22295 ft | 410 kts | 259° |
| 2026-05-04 19:31 | 46.70986 | 28.09217 | 22791 ft | 412 kts | 259° |
| 2026-05-04 19:31 | 46.70364 | 28.05127 | 23278 ft | 415 kts | 259° |
| 2026-05-04 19:32 | 46.69949 | 28.02409 | 23597 ft | 416 kts | 259° |
| 2026-05-04 19:32 | 46.69112 | 27.96926 | 24138 ft | 419 kts | 259° |
| 2026-05-04 19:32 | 46.68683 | 27.94108 | 24424 ft | 420 kts | 259° |
| 2026-05-04 19:32 | 46.68052 | 27.89956 | 24830 ft | 421 kts | 259° |
| 2026-05-04 19:33 | 46.67421 | 27.85829 | 25270 ft | 422 kts | 259° |
| 2026-05-04 19:33 | 46.66781 | 27.81641 | 25686 ft | 423 kts | 259° |
| 2026-05-04 19:33 | 46.66141 | 27.77459 | 26058 ft | 425 kts | 259° |
| 2026-05-04 19:33 | 46.65489 | 27.73224 | 26404 ft | 428 kts | 259° |
| 2026-05-04 19:34 | 46.64834 | 27.68980 | 26771 ft | 430 kts | 259° |
| 2026-05-04 19:34 | 46.64172 | 27.64711 | 27145 ft | 432 kts | 259° |
| 2026-05-04 19:34 | 46.63514 | 27.60486 | 27512 ft | 434 kts | 259° |
| 2026-05-04 19:34 | 46.62844 | 27.56192 | 27881 ft | 435 kts | 259° |
| 2026-05-04 19:35 | 46.62169 | 27.51876 | 28264 ft | 437 kts | 258° |
| 2026-05-04 19:35 | 46.61489 | 27.47523 | 28640 ft | 439 kts | 258° |
| 2026-05-04 19:35 | 46.60818 | 27.43236 | 29021 ft | 441 kts | 258° |
| 2026-05-04 19:35 | 46.60132 | 27.38870 | 29396 ft | 443 kts | 258° |
| 2026-05-04 19:36 | 46.59438 | 27.34475 | 29767 ft | 444 kts | 258° |
| 2026-05-04 19:36 | 46.58747 | 27.30105 | 30236 ft | 443 kts | 258° |
| 2026-05-04 19:36 | 46.58050 | 27.25731 | 30676 ft | 441 kts | 258° |
| 2026-05-04 19:36 | 46.57360 | 27.21431 | 31040 ft | 442 kts | 258° |
| 2026-05-04 19:37 | 46.56663 | 27.17080 | 31358 ft | 443 kts | 258° |
| 2026-05-04 19:37 | 46.55963 | 27.12700 | 31761 ft | 443 kts | 258° |
| 2026-05-04 19:37 | 46.55263 | 27.08330 | 32207 ft | 441 kts | 258° |
| 2026-05-04 19:37 | 46.54566 | 27.03985 | 32663 ft | 440 kts | 258° |
| 2026-05-04 19:38 | 46.53876 | 26.99702 | 33119 ft | 438 kts | 258° |
| 2026-05-04 19:38 | 46.53180 | 26.95399 | 33578 ft | 436 kts | 258° |
| 2026-05-04 19:38 | 46.52382 | 26.91125 | 33970 ft | 437 kts | 252° |
| 2026-05-04 19:39 | 46.49534 | 26.83342 | 34047 ft | 437 kts | 233° |
| 2026-05-04 19:39 | 46.47498 | 26.80137 | 34050 ft | 438 kts | 222° |
| 2026-05-04 19:39 | 46.44990 | 26.77516 | 34058 ft | 439 kts | 211° |
| 2026-05-04 19:40 | 46.39654 | 26.73218 | 34071 ft | 440 kts | 210° |
| 2026-05-04 19:40 | 46.34286 | 26.68894 | 34053 ft | 440 kts | 210° |
| 2026-05-04 19:41 | 46.28974 | 26.64585 | 34077 ft | 439 kts | 211° |
| 2026-05-04 19:41 | 46.23625 | 26.60255 | 34097 ft | 439 kts | 211° |
| 2026-05-04 19:42 | 46.18313 | 26.55970 | 34099 ft | 439 kts | 211° |
| 2026-05-04 19:42 | 46.12961 | 26.51654 | 34098 ft | 439 kts | 211° |
| 2026-05-04 19:43 | 46.07630 | 26.47368 | 34106 ft | 438 kts | 211° |
| 2026-05-04 19:43 | 46.02319 | 26.43117 | 34119 ft | 438 kts | 211° |
| 2026-05-04 19:44 | 45.96985 | 26.38859 | 34115 ft | 437 kts | 211° |
| 2026-05-04 19:44 | 45.91650 | 26.34608 | 34122 ft | 437 kts | 211° |
| 2026-05-04 19:45 | 45.86354 | 26.30394 | 34127 ft | 436 kts | 211° |
| 2026-05-04 19:45 | 45.81032 | 26.26170 | 34125 ft | 435 kts | 211° |
| 2026-05-04 19:46 | 45.75759 | 26.21990 | 34125 ft | 435 kts | 211° |
| 2026-05-04 19:46 | 45.70450 | 26.17793 | 34129 ft | 435 kts | 211° |
| 2026-05-04 19:47 | 45.65161 | 26.13621 | 34124 ft | 435 kts | 211° |
| 2026-05-04 19:47 | 45.59862 | 26.09458 | 34122 ft | 434 kts | 211° |
| 2026-05-04 19:48 | 45.54553 | 26.05289 | 34116 ft | 434 kts | 211° |
| 2026-05-04 19:48 | 45.49249 | 26.01128 | 34114 ft | 434 kts | 210° |
| 2026-05-04 19:49 | 45.43944 | 25.96978 | 34112 ft | 434 kts | 210° |
| 2026-05-04 19:49 | 45.38664 | 25.92855 | 34112 ft | 434 kts | 211° |
| 2026-05-04 19:50 | 45.33348 | 25.88712 | 34112 ft | 435 kts | 210° |
| 2026-05-04 19:50 | 45.28063 | 25.84608 | 34107 ft | 435 kts | 210° |
| 2026-05-04 19:51 | 45.22726 | 25.80476 | 34114 ft | 435 kts | 210° |
| 2026-05-04 19:51 | 45.17409 | 25.76358 | 34100 ft | 435 kts | 210° |
| 2026-05-04 19:52 | 45.12125 | 25.72281 | 34100 ft | 434 kts | 210° |
| 2026-05-04 19:52 | 45.06890 | 25.68245 | 34096 ft | 434 kts | 210° |
| 2026-05-04 19:53 | 45.01582 | 25.64154 | 34097 ft | 433 kts | 210° |
| 2026-05-04 19:53 | 44.96307 | 25.60101 | 34095 ft | 433 kts | 210° |
| 2026-05-04 19:54 | 44.91000 | 25.56049 | 34086 ft | 432 kts | 210° |
| 2026-05-04 19:54 | 44.85709 | 25.52019 | 34074 ft | 432 kts | 210° |
| 2026-05-04 19:55 | 44.80429 | 25.47998 | 34071 ft | 432 kts | 210° |
| 2026-05-04 19:55 | 44.75164 | 25.43985 | 34070 ft | 432 kts | 210° |
| 2026-05-04 19:56 | 44.69870 | 25.39955 | 34070 ft | 432 kts | 210° |
| 2026-05-04 19:56 | 44.64576 | 25.35945 | 34060 ft | 433 kts | 210° |
| 2026-05-04 19:57 | 44.59355 | 25.32003 | 34067 ft | 433 kts | 210° |
| 2026-05-04 19:57 | 44.54021 | 25.27988 | 34067 ft | 434 kts | 210° |
| 2026-05-04 19:58 | 44.48687 | 25.23979 | 34068 ft | 434 kts | 210° |
| 2026-05-04 19:58 | 44.43389 | 25.19986 | 34072 ft | 434 kts | 210° |
| 2026-05-04 19:59 | 44.38055 | 25.15975 | 34075 ft | 434 kts | 210° |
| 2026-05-04 19:59 | 44.32721 | 25.11994 | 34078 ft | 434 kts | 210° |
| 2026-05-04 20:00 | 44.27379 | 25.08021 | 34078 ft | 434 kts | 210° |
| 2026-05-04 20:00 | 44.22079 | 25.04065 | 34078 ft | 434 kts | 210° |
| 2026-05-04 20:01 | 44.16745 | 25.00101 | 34078 ft | 434 kts | 210° |
| 2026-05-04 20:01 | 44.11416 | 24.96146 | 34072 ft | 434 kts | 210° |
| 2026-05-04 20:02 | 44.06080 | 24.92184 | 34075 ft | 434 kts | 210° |
| 2026-05-04 20:02 | 44.00737 | 24.88247 | 34075 ft | 434 kts | 209° |
| 2026-05-04 20:03 | 43.95396 | 24.84316 | 34074 ft | 435 kts | 209° |
| 2026-05-04 20:03 | 43.90038 | 24.80362 | 34083 ft | 435 kts | 209° |
| 2026-05-04 20:04 | 43.84709 | 24.76448 | 34091 ft | 435 kts | 209° |
| 2026-05-04 20:04 | 43.79347 | 24.72536 | 34089 ft | 435 kts | 209° |
| 2026-05-04 20:04 | 43.76696 | 24.70599 | 33793 ft | 436 kts | 209° |
| 2026-05-04 20:05 | 43.74880 | 24.69271 | 33227 ft | 438 kts | 209° |
| 2026-05-04 20:05 | 43.71383 | 24.66711 | 32557 ft | 419 kts | 209° |
| 2026-05-04 20:05 | 43.69635 | 24.65432 | 32250 ft | 416 kts | 209° |
| 2026-05-04 20:05 | 43.67084 | 24.63565 | 31804 ft | 413 kts | 209° |
| 2026-05-04 20:06 | 43.64569 | 24.61679 | 31030 ft | 411 kts | 211° |
| 2026-05-04 20:06 | 43.62118 | 24.59649 | 29910 ft | 413 kts | 213° |
| 2026-05-04 20:06 | 43.59702 | 24.57493 | 28795 ft | 411 kts | 215° |
| 2026-05-04 20:06 | 43.57342 | 24.55320 | 27901 ft | 405 kts | 215° |
| 2026-05-04 20:07 | 43.55010 | 24.53168 | 26998 ft | 401 kts | 215° |
| 2026-05-04 20:07 | 43.52698 | 24.51060 | 26126 ft | 398 kts | 215° |
| 2026-05-04 20:07 | 43.50383 | 24.48980 | 25287 ft | 395 kts | 215° |
| 2026-05-04 20:07 | 43.48086 | 24.46944 | 24474 ft | 392 kts | 214° |
| 2026-05-04 20:08 | 43.45791 | 24.44928 | 23674 ft | 390 kts | 214° |
| 2026-05-04 20:08 | 43.43507 | 24.42932 | 22742 ft | 388 kts | 214° |
| 2026-05-04 20:08 | 43.41234 | 24.40947 | 21861 ft | 384 kts | 214° |
| 2026-05-04 20:08 | 43.38996 | 24.38994 | 21185 ft | 376 kts | 213° |
| 2026-05-04 20:09 | 43.36830 | 24.37102 | 20761 ft | 362 kts | 213° |
| 2026-05-04 20:09 | 43.34741 | 24.35272 | 20345 ft | 350 kts | 213° |
| 2026-05-04 20:09 | 43.32726 | 24.33505 | 19933 ft | 340 kts | 213° |
| 2026-05-04 20:09 | 43.30758 | 24.31776 | 19530 ft | 331 kts | 213° |
| 2026-05-04 20:10 | 43.28842 | 24.30095 | 19138 ft | 323 kts | 213° |
| 2026-05-04 20:10 | 43.26956 | 24.28448 | 18756 ft | 322 kts | 212° |
| 2026-05-04 20:10 | 43.25072 | 24.26804 | 18372 ft | 321 kts | 212° |
| 2026-05-04 20:10 | 43.23192 | 24.25161 | 17957 ft | 321 kts | 212° |
| 2026-05-04 20:11 | 43.21307 | 24.23513 | 17571 ft | 322 kts | 212° |
| 2026-05-04 20:11 | 43.19392 | 24.21843 | 17175 ft | 322 kts | 212° |
| 2026-05-04 20:11 | 43.17523 | 24.20218 | 16794 ft | 323 kts | 212° |
| 2026-05-04 20:11 | 43.15595 | 24.18547 | 16403 ft | 324 kts | 212° |
| 2026-05-04 20:12 | 43.13693 | 24.16895 | 16019 ft | 325 kts | 212° |
| 2026-05-04 20:12 | 43.11773 | 24.15226 | 15631 ft | 344 kts | 211° |
| 2026-05-04 20:12 | 43.09687 | 24.13418 | 15200 ft | 354 kts | 211° |
| 2026-05-04 20:12 | 43.07622 | 24.11629 | 14787 ft | 355 kts | 211° |
| 2026-05-04 20:13 | 43.05535 | 24.09821 | 14361 ft | 355 kts | 211° |
| 2026-05-04 20:13 | 43.03450 | 24.08014 | 13933 ft | 354 kts | 211° |
| 2026-05-04 20:13 | 43.01368 | 24.06209 | 13474 ft | 353 kts | 211° |
| 2026-05-04 20:13 | 42.99306 | 24.04423 | 13055 ft | 351 kts | 211° |
| 2026-05-04 20:14 | 42.97244 | 24.02641 | 12633 ft | 349 kts | 211° |
| 2026-05-04 20:14 | 42.95193 | 24.00870 | 12212 ft | 348 kts | 211° |
| 2026-05-04 20:14 | 42.93147 | 23.99106 | 11773 ft | 347 kts | 212° |
| 2026-05-04 20:14 | 42.91111 | 23.97351 | 11367 ft | 346 kts | 212° |
| 2026-05-04 20:15 | 42.89078 | 23.95598 | 10946 ft | 345 kts | 212° |
| 2026-05-04 20:15 | 42.87039 | 23.93843 | 10481 ft | 347 kts | 212° |
| 2026-05-04 20:15 | 42.85017 | 23.92104 | 10101 ft | 345 kts | 211° |
| 2026-05-04 20:15 | 42.82987 | 23.90361 | 9730 ft | 342 kts | 212° |
| 2026-05-04 20:16 | 42.80989 | 23.88648 | 9447 ft | 337 kts | 212° |
| 2026-05-04 20:16 | 42.78978 | 23.86925 | 8728 ft | 343 kts | 212° |
| 2026-05-04 20:16 | 42.76996 | 23.85227 | 8301 ft | 329 kts | 212° |
| 2026-05-04 20:16 | 42.75102 | 23.83604 | 7906 ft | 315 kts | 212° |
| 2026-05-04 20:17 | 42.73282 | 23.82050 | 7522 ft | 303 kts | 213° |
| 2026-05-04 20:17 | 42.71526 | 23.80554 | 7152 ft | 293 kts | 213° |
| 2026-05-04 20:17 | 42.69836 | 23.79117 | 6801 ft | 281 kts | 213° |
| 2026-05-04 20:17 | 42.69275 | 23.78614 | 6701 ft | 277 kts | 218° |
| 2026-05-04 20:18 | 42.68061 | 23.76717 | 6392 ft | 265 kts | 247° |
| 2026-05-04 20:18 | 42.67658 | 23.74896 | 6176 ft | 258 kts | 268° |
| 2026-05-04 20:18 | 42.67724 | 23.72486 | 5862 ft | 255 kts | 278° |
| 2026-05-04 20:18 | 42.67894 | 23.70042 | 5510 ft | 257 kts | 277° |
| 2026-05-04 20:19 | 42.68051 | 23.67650 | 5170 ft | 254 kts | 277° |
| 2026-05-04 20:19 | 42.68197 | 23.65304 | 4858 ft | 243 kts | 276° |
| 2026-05-04 20:19 | 42.68337 | 23.63045 | 4524 ft | 234 kts | 276° |
| 2026-05-04 20:19 | 42.68471 | 23.60884 | 4211 ft | 225 kts | 276° |
| 2026-05-04 20:20 | 42.68598 | 23.58842 | 3920 ft | 208 kts | 275° |
| 2026-05-04 20:20 | 42.68712 | 23.57002 | 3677 ft | 186 kts | 274° |
| 2026-05-04 20:20 | 42.68814 | 23.55366 | 3420 ft | 162 kts | 271° |
| 2026-05-04 20:20 | 42.68904 | 23.53905 | 3195 ft | 152 kts | 272° |
| 2026-05-04 20:21 | 42.68978 | 23.52709 | 3037 ft | 147 kts | 271° |
| 2026-05-04 20:21 | 42.69062 | 23.51328 | 2841 ft | 145 kts | 271° |
| 2026-05-04 20:21 | 42.69213 | 23.48851 | 2510 ft | 143 kts | 273° |
| 2026-05-04 20:22 | 42.69296 | 23.47492 | 2315 ft | 144 kts | 274° |
| 2026-05-04 20:22 | 42.69371 | 23.46260 | 2141 ft | 144 kts | 274° |
| 2026-05-04 20:22 | 42.69453 | 23.44932 | 1932 ft | 144 kts | 274° |
| 2026-05-04 20:22 | 42.69539 | 23.43585 | 1761 ft | 141 kts | 272° |
| 2026-05-04 20:23 | 42.69608 | 23.42460 | 1749 ft | 106 kts | 274° |
| 2026-05-04 20:23 | 42.69639 | 23.41870 | 1749 ft | 33 kts | 271° |
| 2026-05-04 20:23 | 42.69610 | 23.41652 | 1754 ft | 20 kts | 252° |
| 2026-05-04 20:23 | 42.69550 | 23.41467 | 1750 ft | 22 kts | 244° |
| 2026-05-04 20:24 | 42.69491 | 23.41281 | 1748 ft | 19 kts | 247° |
| 2026-05-04 20:24 | 42.69381 | 23.41195 | 1742 ft | 20 kts | 192° |
| 2026-05-04 20:24 | 42.69237 | 23.41155 | 1753 ft | 22 kts | 192° |
| 2026-05-04 20:24 | 42.69137 | 23.41110 | 1749 ft | 12 kts | 223° |
| 2026-05-04 20:25 | 42.69104 | 23.40999 | 1744 ft | 14 kts | 251° |
| 2026-05-04 20:25 | 42.69066 | 23.40838 | 1753 ft | 16 kts | 252° |
| 2026-05-04 20:25 | 42.69075 | 23.40700 | 1753 ft | 16 kts | 287° |
| 2026-05-04 20:25 | 42.69099 | 23.40578 | 1748 ft | 9 kts | 265° |
| 2026-05-04 20:26 | 42.69055 | 23.40548 | 1753 ft | 9 kts | 195° |
| 2026-05-04 20:26 | 42.69027 | 23.40536 | 1750 ft | 0 kts | 196° |